Tiempo atmosférico en la estación meteorológica de Ordizia, Gipuzkoa (290 m.)



Fecha
DESCASC
Temp. máxima en grados centígrados (hora)
DESCASC
Temp. mínima en grados centígrados (hora)
DESCASC
Temp. media en grados centígrados
DESCASC
Racha de viento máxima en m/sg (hora)
DESCASC
Velocidad máxima media en intervalos de 10 minutos(hora)
DESCASC
Precipitaciones diarias en mm
DESCASC
Precipitaciones de 00:00 a 06:00 en mm
DESCASC
Precipitaciones de 06:00 a 12:00 en mm
DESCASC
Precipitaciones de 12:00 a 18:00 en mm
DESCASC
Precipitaciones de 18:00 a 24:00 en mm
DESCASC
23-06-2019 31.5 (15:40) 18.2 (23:50) 24.9 9.72 (17:20) 6.67 (17:20) 0 0 0 0 0
22-06-2019 27.4 (16:40) 9.5 (07:40) 18.4 5 (19:30) 3.06 (13:50) 0 0 0 0 0
21-06-2019 19 (17:20) 12.4 (23:59) 15.7 6.39 (16:40) 3.61 (15:00) 6.6 3.6 3 0 0
20-06-2019 17.5 (18:50) 14.1 (00:00) 15.8 4.72 (10:50) 2.78 (19:20) 0.8 0 0.2 0 0.6
19-06-2019 26.5 (14:40) 13.4 (00:00) 19.9 8.89 (14:00) 4.72 (12:50) 0 0 0 0 0
18-06-2019 33.3 (17:20) 15.1 (00:00) 24.2 -- (--) -- (--) 0 0 0 0 0
17-06-2019 31 (17:20) 14.2 (00:00) 22.6 6.11 (15:50) 3.89 (21:50) 0 0 0 0 0
16-06-2019 24.5 (15:20) 8.3 (00:00) 16.4 8.33 (17:00) 4.44 (17:00) 0 0 0 0 0
15-06-2019 20 (15:30) 10.2 (00:00) 15.1 9.17 (17:50) 5.28 (16:00) 0 0 0 0 0
14-06-2019 16.1 (15:30) 11 (00:00) 13.6 6.67 (22:40) 3.89 (15:50) 0.8 0.2 0 0.2 0.4
13-06-2019 21.6 (13:10) 6.7 (00:00) 14.2 9.72 (15:00) 5.83 (15:00) 2.8 0 0 0 2.8
12-06-2019 19.6 (15:10) 6.6 (00:00) 13.1 8.61 (16:50) 4.44 (15:40) 0 0 0 0 0
11-06-2019 14 (17:50) 9.4 (00:00) 11.7 10.56 (14:20) 5 (14:30) 11.6 3.6 1 5.6 1.4
10-06-2019 16 (15:20) 10.6 (00:00) 13.3 6.11 (16:40) 3.33 (15:40) 1.2 0.6 0.6 0 0
09-06-2019 21.2 (13:10) 12.5 (00:00) 16.9 6.11 (15:30) 3.61 (12:50) 0.6 0 0 0 0.6
08-06-2019 19.9 (16:00) 6.5 (00:00) 13.2 9.17 (17:40) 4.72 (14:40) 0.2 0 0 0 0.2
07-06-2019 20.8 (00:00) 11.1 (00:00) 15.9 17.5 (02:50) 9.44 (03:00) 0.8 0.8 0 0 0
06-06-2019 24.2 (19:50) 8.3 (00:00) 16.3 18.61 (23:00) 10 (17:50) 0 0 0 0 0
05-06-2019 15 (18:00) 10.3 (00:00) 12.7 7.22 (13:00) 4.72 (13:00) 25.8 6.2 16.6 3 0
04-06-2019 28.2 (14:00) 12.6 (00:00) 20.4 11.39 (15:00) 6.94 (15:00) 0.8 0 0 0 0.8
03-06-2019 24.5 (14:00) 12.8 (00:00) 18.7 8.06 (14:50) 5 (15:00) 0 0 0 0 0
02-06-2019 31.4 (15:30) 13.4 (00:00) 22.4 9.44 (17:00) 5.28 (17:00) 0 0 0 0 0
01-06-2019 31.9 (16:50) 12.7 (00:00) 22.3 6.11 (13:30) 3.61 (14:10) 0 0 0 0 0
31-05-2019 28.1 (15:00) 11.2 (00:00) 19.7 6.94 (18:10) 3.61 (13:10) 0 0 0 0 0
30-05-2019 24.2 (15:10) 7.1 (00:00) 15.7 8.33 (17:40) 4.72 (15:50) 0 0 0 0 0
29-05-2019 18.1 (18:10) 10.3 (00:00) 14.2 8.61 (01:10) 3.89 (00:20) 2 1 1 0 0
28-05-2019 15.3 (12:10) 8.7 (00:00) 12 6.94 (13:50) 4.17 (13:50) 4.4 0 0.2 3.8 0.4

Gráficas

Temp. máximas Temp. mínimas Temp. medias Precipitaciones Rachas de viento máximas Velocidades máximas media en intervalos de 10 minutos

Datos horarios

Fecha y hora oficial Temperatura (ºC) Velocidad del viento (km/h) Dirección del viento Racha (km/h) Dirección de racha Precipitación (mm) Presión (hPa) Tendencia (hPa) Humedad (%)
2019-06-26 23:00:00 32.7 8 Sur 31 Este 0 -- -- 31
2019-06-26 22:00:00 33.1 5 Noroeste 19 Este 0 -- -- 32
2019-06-26 21:00:00 34.1 10 Sudeste 36 Sudeste 0 -- -- 32
2019-06-26 20:00:00 35.5 25 Sudeste 53 Sudeste 0 -- -- 30
2019-06-26 19:00:00 35.4 18 Sudeste 58 Sudeste 0 -- -- 31
2019-06-26 18:00:00 35.5 32 Sudeste 55 Este 0 -- -- 30
2019-06-26 17:00:00 35.4 21 Sudeste 54 Sudeste 0 -- -- 30
2019-06-26 16:00:00 35 30 Sudeste 46 Este 0 -- -- 32
2019-06-26 15:00:00 34.7 25 Sudeste 45 Sudeste 0 -- -- 32
2019-06-26 14:00:00 33.3 28 Sudeste 44 Este 0 -- -- 36
2019-06-26 13:00:00 32.2 18 Sudeste 41 Sudeste 0 -- -- 39
2019-06-26 12:00:00 30.3 11 Sudoeste 32 Sudoeste 0 -- -- 43
2019-06-26 11:00:00 28 10 Oeste 22 Oeste 0 -- -- 53
2019-06-26 10:00:00 23.1 5 Oeste 14 Sudeste 0 -- -- 82
2019-06-26 09:00:00 19.1 5 Noroeste 10 Este 0 -- -- 99
2019-06-26 08:00:00 17.5 4 Sudeste 12 Este 0 -- -- 99
2019-06-26 07:00:00 17.4 2 Nordeste 11 Este 0 -- -- 99
2019-06-26 06:00:00 17.7 3 Nordeste 10 Este 0 -- -- 97
2019-06-26 05:00:00 18.2 3 Oeste 7 Este 0 -- -- 97
2019-06-26 04:00:00 18.5 4 Este 8 Este 0 -- -- 95
2019-06-26 03:00:00 19 3 Noroeste 8 Este 0 -- -- 95
2019-06-26 02:00:00 19.2 4 Este 5 Este 0 -- -- 93
2019-06-26 01:00:00 19.3 3 Este 6 Este 0 -- -- 92
2019-06-26 00:00:00 19.4 0 Calma 4 Sudoeste 0 -- -- 92
2019-06-25 23:00:00 19.2 2 Sudeste 8 Este 0 -- -- 92
2019-06-25 22:00:00 18.9 3 Este 19 Este 0 -- -- 93
2019-06-25 21:00:00 19.4 10 Este 25 Este 0 -- -- 90
2019-06-25 20:00:00 20.8 15 Este 27 Este 0 -- -- 86
2019-06-25 19:00:00 22.4 18 Este 26 Este 0 -- -- 81
2019-06-25 18:00:00 24.5 15 Este 31 Este 0 -- -- 75
2019-06-25 17:00:00 25.8 15 Este 28 Sudeste 0 -- -- 73
2019-06-25 16:00:00 25.8 18 Este 29 Este 0 -- -- 73
2019-06-25 15:00:00 25.7 17 Este 28 Este 0 -- -- 70
2019-06-25 14:00:00 26.4 10 Este 19 Este 0 -- -- 63
2019-06-25 13:00:00 25.4 12 Este 20 Sudeste 0 -- -- 66
2019-06-25 12:00:00 23.1 7 Sudeste 12 Este 0 -- -- 76
2019-06-25 11:00:00 20.9 4 Sudeste 11 Este 0 -- -- 81
2019-06-25 10:00:00 18.5 4 Sudeste 8 Este 0 -- -- 86
2019-06-25 09:00:00 16.2 3 Sudeste 5 Este 0 -- -- 96
2019-06-25 08:00:00 14.1 2 Oeste 5 Oeste 0 -- -- 99
2019-06-25 07:00:00 14 3 Sudoeste 5 Sudoeste 0 -- -- 98
2019-06-25 06:00:00 14.4 2 Sudoeste 4 Sudoeste 0 -- -- 97
2019-06-25 05:00:00 14.7 0 Calma 3 Noroeste 0 -- -- 97
2019-06-25 04:00:00 15.2 2 Sudeste 5 Sudeste 0 -- -- 95
2019-06-25 03:00:00 15.8 3 Sur 7 Oeste 0 -- -- 92
2019-06-25 02:00:00 16.5 3 Sudeste 6 Sudeste 0 -- -- 91
2019-06-25 01:00:00 17.3 3 Sudeste 4 Sudeste 0 -- -- 88
2019-06-25 00:00:00 17.9 4 Oeste 15 Sudoeste 0 -- -- 84
2019-06-24 23:00:00 18.4 3 Este 8 Este 0 -- -- 87
2019-06-24 22:00:00 18.4 0 Calma 18 Este 0 -- -- 88
2019-06-24 21:00:00 18.9 7 Nordeste 25 Este 0 -- -- 86
2019-06-24 20:00:00 20.1 15 Este 34 Este 0 -- -- 83
2019-06-24 19:00:00 24 10 Este 20 Este 0 -- -- 70
2019-06-24 18:00:00 24.5 7 Este 19 Este 0 -- -- 69
2019-06-24 17:00:00 27.1 4 Norte 22 Este 0 -- -- 66
2019-06-24 16:00:00 27.3 6 Este 18 Este 0 -- -- 47
2019-06-24 15:00:00 26 5 Nordeste 35 Este 0 -- -- 61
2019-06-24 14:00:00 27.5 8 Este 23 Este 0 -- -- 48
2019-06-24 13:00:00 27.6 14 Este 37 Este 0 -- -- 43
2019-06-24 12:00:00 25.8 7 Sudeste 32 Sudeste 0 -- -- 44
2019-06-24 11:00:00 24.2 7 Oeste 22 Nordeste 0 -- -- 47
2019-06-24 10:00:00 19.9 5 Norte 11 Sudeste 0 -- -- 84
2019-06-24 09:00:00 17.6 3 Sudeste 6 Sudeste 0 -- -- 95
2019-06-24 08:00:00 16.1 2 Noroeste 6 Sudeste 0 -- -- 98
2019-06-24 07:00:00 15.8 2 Sudeste 11 Este 0 -- -- 98
2019-06-24 06:00:00 15.7 4 Este 10 Este 0 -- -- 97
2019-06-24 05:00:00 15.9 2 Nordeste 6 Sudeste 0 -- -- 96
2019-06-24 04:00:00 16.2 2 Nordeste 6 Oeste 0 -- -- 95
2019-06-24 03:00:00 16.8 3 Oeste 5 Oeste 0 -- -- 94
2019-06-24 02:00:00 17.2 2 Oeste 4 Este 0 -- -- 92
2019-06-24 01:00:00 17.8 0 Calma 4 Este 0 -- -- 89
2019-06-24 00:00:00 18.2 0 Calma 9 Este 0 -- -- 88
2019-06-23 23:00:00 18.8 5 Este 9 Este 0 -- -- 85
2019-06-23 22:00:00 19.8 6 Este 9 Este 0 -- -- 80
2019-06-23 21:00:00 20.7 6 Este 14 Sudeste 0 -- -- 75
2019-06-23 20:00:00 21.4 8 Este 21 Este 0 -- -- 73
2019-06-23 19:00:00 22.3 10 Este 24 Este 0 -- -- 68
2019-06-23 18:00:00 22.9 13 Este 35 Este 0 -- -- 67
2019-06-23 17:00:00 25.5 21 Este 32 Este 0 -- -- 65
2019-06-23 16:00:00 30.8 9 Este 14 Este 0 -- -- 54
2019-06-23 15:00:00 30.8 5 Sudeste 16 Oeste 0 -- -- 49
2019-06-23 14:00:00 30.3 3 Sudoeste 25 Sudeste 0 -- -- 55
2019-06-23 13:00:00 29.1 10 Sur 22 Sudeste 0 -- -- 50
2019-06-23 12:00:00 28.4 6 Sudeste 13 Sudeste 0 -- -- 51
2019-06-23 11:00:00 26.4 4 Sudoeste 24 Sudoeste 0 -- -- 59
2019-06-23 10:00:00 24.5 12 Oeste 26 Oeste 0 -- -- 59
2019-06-23 09:00:00 24.1 10 Oeste 24 Sudoeste 0 -- -- 58
2019-06-23 08:00:00 23.5 11 Oeste 26 Oeste 0 -- -- 59
2019-06-23 07:00:00 23.6 12 Oeste 24 Oeste 0 -- -- 58
2019-06-23 06:00:00 24.1 9 Oeste 22 Sur 0 -- -- 53
2019-06-23 05:00:00 24.3 13 Sur 30 Sudeste 0 -- -- 52
2019-06-23 04:00:00 24 8 Noroeste 19 Noroeste 0 -- -- 52
2019-06-23 03:00:00 20.8 5 Este 10 Sudoeste 0 -- -- 67
2019-06-23 02:00:00 18.3 2 Sudeste 8 Este 0 -- -- 90
2019-06-23 01:00:00 18.9 3 Oeste 7 Noroeste 0 -- -- 89
2019-06-23 00:00:00 19.9 4 Oeste 6 Oeste 0 -- -- 85
2019-06-22 23:00:00 21.2 3 Este 5 Este 0 -- -- 83
2019-06-22 22:00:00 22.6 3 Nordeste 10 Este 0 -- -- 76
2019-06-22 21:00:00 23.8 4 Nordeste 14 Este 0 -- -- 72
2019-06-22 20:00:00 25.4 8 Este 18 Este 0 -- -- 65
2019-06-22 19:00:00 26.3 7 Este 15 Este 0 -- -- 58
2019-06-22 18:00:00 26.9 5 Nordeste 17 Este 0 -- -- 53
2019-06-22 17:00:00 27.2 5 Nordeste 15 Este 0 -- -- 51
2019-06-22 16:00:00 26.9 9 Este 15 Este 0 -- -- 48
2019-06-22 15:00:00 25.9 8 Este 18 Este 0 -- -- 52
2019-06-22 14:00:00 24 9 Este 18 Este 0 -- -- 59
2019-06-22 13:00:00 22.5 6 Sudeste 12 Sudeste 0 -- -- 71
2019-06-22 12:00:00 18.9 4 Este 12 Sudeste 0 -- -- 75
2019-06-22 11:00:00 15.3 3 Sur 11 Sudeste 0 -- -- 85
2019-06-22 10:00:00 12.1 3 Sudoeste 5 Sudeste 0 -- -- 100
2019-06-22 09:00:00 10.2 2 Sur 6 Este 0 -- -- 100
2019-06-22 08:00:00 9.6 3 Noroeste 8 Oeste 0 -- -- 100
2019-06-22 07:00:00 9.7 4 Noroeste 5 Noroeste 0 -- -- 100
2019-06-22 06:00:00 9.7 0 Calma 4 Oeste 0 -- -- 99
2019-06-22 05:00:00 9.6 0 Calma 5 Noroeste 0 -- -- 99
2019-06-22 04:00:00 9.9 2 Sudeste 6 Este 0 -- -- 98
2019-06-22 03:00:00 10.3 3 Noroeste 5 Oeste 0 -- -- 98
2019-06-22 02:00:00 10.7 4 Oeste 5 Oeste 0 -- -- 96
2019-06-22 01:00:00 11.5 2 Sudoeste 5 Este 0 -- -- 93
2019-06-22 00:00:00 12.4 2 Este 5 Este 0 -- -- 92
2019-06-21 23:00:00 13.6 0 Calma 6 Este 0 -- -- 86
2019-06-21 22:00:00 15.1 3 Norte 10 Nordeste 0 -- -- 77
2019-06-21 21:00:00 16.2 4 Nordeste 18 Nordeste 0 -- -- 74
2019-06-21 20:00:00 18.1 5 Este 15 Este 0 -- -- 66
2019-06-21 19:00:00 18.3 7 Este 16 Este 0 -- -- 67
2019-06-21 18:00:00 18.3 5 Este 22 Este 0 -- -- 69
2019-06-21 17:00:00 18.6 10 Este 23 Este 0 -- -- 69
2019-06-21 16:00:00 18 12 Este 22 Este 0 -- -- 70
2019-06-21 15:00:00 17.8 13 Este 22 Este 0 -- -- 81
2019-06-21 14:00:00 17.5 12 Sudeste 18 Sudeste 0 -- -- 83
2019-06-21 13:00:00 15.3 9 Este 15 Sudeste 0 -- -- 93
2019-06-21 12:00:00 14 7 Este 15 Este 0 -- -- 98
2019-06-21 11:00:00 13.1 5 Este 10 Este 0 -- -- 99
2019-06-21 10:00:00 13.2 2 Nordeste 8 Nordeste 0 -- -- 100
2019-06-21 09:00:00 12.8 3 Este 12 Este 0.8 -- -- 100
2019-06-21 08:00:00 12.6 6 Este 11 Este 1.6 -- -- 100
2019-06-21 07:00:00 13.1 4 Sudeste 6 Sudeste 0.6 -- -- 100
2019-06-21 06:00:00 13.1 3 Este 9 Este 0.2 -- -- 99
2019-06-21 05:00:00 13.2 5 Este 8 Este 0 -- -- 99
2019-06-21 04:00:00 13.6 6 Este 9 Este 0.2 -- -- 99
2019-06-21 03:00:00 13.6 5 Este 7 Este 0.4 -- -- 99
2019-06-21 02:00:00 13.8 4 Este 10 Este 1.4 -- -- 99
2019-06-21 01:00:00 14 2 Nordeste 9 Este 1.4 -- -- 98
2019-06-21 00:00:00 14.1 4 Nordeste 10 Este 0.4 -- -- 97
2019-06-20 23:00:00 14.5 6 Este 12 Este 0.2 -- -- 94
2019-06-20 22:00:00 15.2 5 Este 9 Norte 0 -- -- 91
2019-06-20 21:00:00 15.7 4 Norte 13 Este 0 -- -- 88
2019-06-20 20:00:00 16.5 6 Este 17 Este 0 -- -- 84
2019-06-20 19:00:00 17.4 5 Este 15 Nordeste 0 -- -- 79
2019-06-20 18:00:00 17 3 Nordeste 14 Este 0 -- -- 83
2019-06-20 17:00:00 16.7 3 Nordeste 9 Sudeste 0 -- -- 84
2019-06-20 16:00:00 16.3 7 Este 13 Este 0 -- -- 89
2019-06-20 15:00:00 16 5 Nordeste 10 Este 0 -- -- 89
2019-06-20 14:00:00 15.4 5 Nordeste 14 Noroeste 0 -- -- 92
2019-06-20 13:00:00 15.9 3 Noroeste 15 Este 0 -- -- 91
2019-06-20 12:00:00 15.4 6 Nordeste 17 Este 0 -- -- 93
2019-06-20 11:00:00 15.6 9 Este 17 Este 0 -- -- 96
2019-06-20 10:00:00 15.1 5 Este 10 Este 0.2 -- -- 97
2019-06-20 09:00:00 15.3 7 Este 12 Sudeste 0 -- -- 95
2019-06-20 08:00:00 15.1 9 Sudeste 12 Sudeste 0 -- -- 95
2019-06-20 07:00:00 15 2 Norte 10 Nordeste 0 -- -- 97
2019-06-20 06:00:00 14.9 3 Nordeste 10 Este 0 -- -- 97
2019-06-20 05:00:00 15.2 4 Este 9 Este 0 -- -- 95
2019-06-20 04:00:00 15.6 5 Este 11 Nordeste 0 -- -- 91
2019-06-20 03:00:00 15.9 3 Nordeste 6 Nordeste 0 -- -- 89
2019-06-20 02:00:00 16.2 3 Norte 5 Norte 0 -- -- 87
2019-06-20 01:00:00 16.3 3 Este 6 Este 0 -- -- 85
2019-06-20 00:00:00 16.4 4 Este 9 Este 0 -- -- 85
2019-06-19 23:00:00 16.8 4 Nordeste 11 Este 0 -- -- 82
2019-06-19 22:00:00 17.1 6 Este 15 Nordeste 0 -- -- 79
2019-06-19 21:00:00 17.6 4 Este 17 Este 0 -- -- 76
2019-06-19 20:00:00 18.2 6 Nordeste 25 Nordeste 0 -- -- 76
2019-06-19 19:00:00 19.7 9 Este 30 Este 0 -- -- 76
2019-06-19 18:00:00 21.6 14 Este 28 Este 0 -- -- 70
2019-06-19 17:00:00 21.9 12 Este 29 Este 0 -- -- 70
2019-06-19 16:00:00 23.2 6 Norte 26 Este 0 -- -- 63
2019-06-19 15:00:00 24.4 13 Este -- -- -- -- -- 59
2019-06-19 14:00:00 25.3 15 Oeste 32 Noroeste 0 -- -- 50
2019-06-19 13:00:00 25 17 Oeste 28 Sudoeste 0 -- -- 54
2019-06-19 12:00:00 25.5 7 Sudoeste 21 Noroeste 0 -- -- 54
2019-06-19 11:00:00 23.5 6 Sudoeste 23 Sudoeste 0 -- -- 59
2019-06-19 10:00:00 20.9 3 Sudoeste 13 Oeste 0 -- -- 72
2019-06-19 09:00:00 17 8 Oeste 13 Oeste 0 -- -- 85
2019-06-19 08:00:00 14 4 Noroeste 8 Norte 0 -- -- 98
2019-06-19 07:00:00 13.4 2 Noroeste 4 Este 0 -- -- 98
2019-06-19 06:00:00 13.4 3 Oeste 6 Oeste 0 -- -- 98
2019-06-19 05:00:00 13.8 4 Oeste 7 Oeste 0 -- -- 97
2019-06-19 04:00:00 14.3 2 Sudeste 5 Oeste 0 -- -- 96
2019-06-19 03:00:00 14.8 4 Oeste 6 Oeste 0 -- -- 96
2019-06-19 02:00:00 15.6 3 Este 10 Este 0 -- -- 95
2019-06-19 01:00:00 15.8 0 Calma 6 Sudoeste 0 -- -- 93
2019-06-19 00:00:00 16.2 3 Noroeste 8 Este 0 -- -- 93
2019-06-18 23:00:00 16.6 5 Este 10 Este 0 -- -- 91
2019-06-18 22:00:00 17.2 8 Este 24 Este 0 -- -- 88
2019-06-18 21:00:00 -- -- -- -- -- -- -- -- --
2019-06-18 20:00:00 23.3 15 Nordeste 32 Este 0 -- -- 63
2019-06-18 19:00:00 31 14 Este 29 Noroeste 0 -- -- 35
2019-06-18 18:00:00 32.4 6 Sur 24 Oeste 0 -- -- 27
2019-06-18 17:00:00 33.1 6 Oeste 17 Oeste 0 -- -- 35
2019-06-18 16:00:00 31.9 4 Este 34 Sudeste 0 -- -- 30
2019-06-18 15:00:00 31.6 14 Sur 35 Sudeste 0 -- -- 31
2019-06-18 14:00:00 30.4 18 Sur 33 Sudeste 0 -- -- 34
2019-06-18 13:00:00 29.4 18 Sudeste 37 Sudeste 0 -- -- 36
2019-06-18 12:00:00 27.3 12 Sudeste 28 Sudeste 0 -- -- 42
2019-06-18 11:00:00 26.1 3 Noroeste 21 Sudeste 0 -- -- 46
2019-06-18 10:00:00 24 4 Oeste 10 Sudeste 0 -- -- 47
2019-06-18 09:00:00 19.3 6 Noroeste 12 Noroeste 0 -- -- 66
2019-06-18 08:00:00 15.6 3 Oeste 9 Oeste 0 -- -- 97
2019-06-18 07:00:00 15.1 4 Oeste 8 Noroeste 0 -- -- 97
2019-06-18 06:00:00 15.7 4 Nordeste 10 Este 0 -- -- 97
2019-06-18 05:00:00 15.9 4 Nordeste 14 Sudoeste 0 -- -- 96
2019-06-18 04:00:00 16 5 Este 10 Este 0 -- -- 96
2019-06-18 03:00:00 16.2 4 Este 6 Este 0 -- -- 96
2019-06-18 02:00:00 16.2 2 Este 10 Este 0 -- -- 96
2019-06-18 01:00:00 16.2 5 Este 12 Este 0 -- -- 95
2019-06-18 00:00:00 16.8 3 Nordeste 13 Este 0 -- -- 93
2019-06-17 23:00:00 17.4 6 Este 20 Este 0 -- -- 90
2019-06-17 22:00:00 19.3 13 Este 22 Este 0 -- -- 84
2019-06-17 21:00:00 23.5 3 Nordeste 16 Este 0 -- -- 75
2019-06-17 20:00:00 25.6 7 Este 15 Este 0 -- -- 70
2019-06-17 19:00:00 27.7 5 Este 21 Norte 0 -- -- 60
2019-06-17 18:00:00 29.8 8 Norte 19 Nordeste 0 -- -- 41
2019-06-17 17:00:00 30.9 5 Nordeste 22 Este 0 -- -- 38
2019-06-17 16:00:00 29.8 8 Este 22 Este 0 -- -- 42
2019-06-17 15:00:00 29.3 9 Este 16 Este 0 -- -- 45
2019-06-17 14:00:00 28.2 6 Este 13 Sudeste 0 -- -- 49
2019-06-17 13:00:00 25.7 4 Sudeste 14 Este 0 -- -- 54
2019-06-17 12:00:00 21.8 8 Este 13 Este 0 -- -- 78
2019-06-17 11:00:00 18.8 4 Sudeste 9 Sudeste 0 -- -- 87
2019-06-17 10:00:00 15.6 3 Sudeste 8 Sudeste 0 -- -- 95
2019-06-17 09:00:00 14.6 3 Sudoeste 9 Oeste 0 -- -- 98
2019-06-17 08:00:00 14.2 3 Noroeste 6 Noroeste 0 -- -- 98
2019-06-17 07:00:00 14.2 4 Noroeste 8 Noroeste 0 -- -- 98
2019-06-17 06:00:00 14.4 3 Oeste 6 Oeste 0 -- -- 98
2019-06-17 05:00:00 14.4 0 Calma 2 Este 0 -- -- 98
2019-06-17 04:00:00 14.4 0 Calma 4 Noroeste 0 -- -- 98
2019-06-17 03:00:00 14.4 2 Oeste 4 Oeste 0 -- -- 97
2019-06-17 02:00:00 14.7 2 Noroeste 3 Noroeste 0 -- -- 96
2019-06-17 01:00:00 15.6 2 Oeste 4 Noroeste 0 -- -- 93
2019-06-17 00:00:00 16.8 0 Calma 3 Sudeste 0 -- -- 89
2019-06-16 23:00:00 17.8 2 Sur 4 Sur 0 -- -- 85
2019-06-16 22:00:00 18.8 0 Calma 8 Nordeste 0 -- -- 81
2019-06-16 21:00:00 20.1 6 Este 10 Este 0 -- -- 77
2019-06-16 20:00:00 22 6 Este 20 Este 0 -- -- 70
2019-06-16 19:00:00 22.8 9 Este 22 Este 0 -- -- 68
2019-06-16 18:00:00 23.6 12 Este 30 Este 0 -- -- 65
2019-06-16 17:00:00 24 16 Este 30 Este 0 -- -- 63
2019-06-16 16:00:00 24.5 12 Este 24 Nordeste 0 -- -- 63
2019-06-16 15:00:00 24.3 12 Este 23 Este 0 -- -- 60
2019-06-16 14:00:00 22.8 12 Este 22 Sudeste 0 -- -- 59
2019-06-16 13:00:00 21.3 14 Este 20 Este 0 -- -- 63
2019-06-16 12:00:00 19.4 9 Sudeste 17 Sudeste 0 -- -- 67
2019-06-16 11:00:00 17.3 7 Sudeste 12 Sudeste 0 -- -- 76
2019-06-16 10:00:00 14.9 4 Sudeste 9 Sudeste 0 -- -- 80
2019-06-16 09:00:00 12.2 3 Sudeste 6 Sudeste 0 -- -- 88
2019-06-16 08:00:00 9.6 0 Calma 4 Sudeste 0 -- -- 96
2019-06-16 07:00:00 8.3 0 Calma 4 Noroeste 0 -- -- 97
2019-06-16 06:00:00 8.7 0 Calma 3 Oeste 0 -- -- 96
2019-06-16 05:00:00 9.2 0 Calma 5 Sur 0 -- -- 95
2019-06-16 04:00:00 9.7 2 Sudeste 4 Este 0 -- -- 93
2019-06-16 03:00:00 10.2 0 Calma 4 Oeste 0 -- -- 91
2019-06-16 02:00:00 10.6 2 Sudeste 5 Oeste 0 -- -- 89
2019-06-16 01:00:00 11.2 2 Sudoeste 5 Noroeste 0 -- -- 85
2019-06-16 00:00:00 12.4 3 Este 10 Norte 0 -- -- 79
2019-06-15 23:00:00 13.6 2 Este 8 Este 0 -- -- 76
2019-06-15 22:00:00 15 4 Nordeste 12 Norte 0 -- -- 64
2019-06-15 21:00:00 16.3 4 Nordeste 13 Nordeste 0 -- -- 61
2019-06-15 20:00:00 18.3 5 Norte 20 Nordeste 0 -- -- 58
2019-06-15 19:00:00 18.5 9 Nordeste 28 Este 0 -- -- 57
2019-06-15 18:00:00 18.6 15 Este 33 Este 0 -- -- 56
2019-06-15 17:00:00 19.2 10 Este 28 Este 0 -- -- 55
2019-06-15 16:00:00 19.8 19 Sudeste 31 Sudeste 0 -- -- 56
2019-06-15 15:00:00 19.7 12 Este 25 Este 0 -- -- 62
2019-06-15 14:00:00 18.5 9 Este 22 Este 0 -- -- 63
2019-06-15 13:00:00 17.9 9 Sudeste 17 Sudeste 0 -- -- 65
2019-06-15 12:00:00 16.9 4 Noroeste 17 Sudeste 0 -- -- 67
2019-06-15 11:00:00 15.9 6 Este 13 Este 0 -- -- 74
2019-06-15 10:00:00 13.9 5 Sudeste 13 Sur 0 -- -- 91
2019-06-15 09:00:00 11.3 3 Este 7 Sudeste 0 -- -- 98
2019-06-15 08:00:00 10.7 2 Oeste 6 Noroeste 0 -- -- 99
2019-06-15 07:00:00 10.5 3 Noroeste 7 Este 0 -- -- 98
2019-06-15 06:00:00 10.6 0 Calma 6 Oeste 0 -- -- 98
2019-06-15 05:00:00 11.1 0 Calma 4 Oeste 0 -- -- 97
2019-06-15 04:00:00 11.8 0 Calma 4 Este 0 -- -- 98
2019-06-15 03:00:00 11.9 0 Calma 6 Este 0 -- -- 98
2019-06-15 02:00:00 11.8 3 Este 13 Este 0 -- -- 98
2019-06-15 01:00:00 12.2 3 Oeste 7 Noroeste 0 -- -- 95
2019-06-15 00:00:00 12.4 6 Nordeste 15 Noroeste 0 -- -- 92
2019-06-14 23:00:00 13 6 Este 24 Oeste 0 -- -- 91
2019-06-14 22:00:00 13.2 5 Noroeste 14 Norte 0 -- -- 95
2019-06-14 21:00:00 13.3 5 Este 12 Este 0 -- -- 97
2019-06-14 20:00:00 13.5 7 Este 15 Norte 0 -- -- 95
2019-06-14 19:00:00 14 3 Nordeste 16 Norte 0.4 -- -- 93
2019-06-14 18:00:00 14.5 3 Norte 13 Nordeste 0.2 -- -- 89
2019-06-14 17:00:00 15 3 Nordeste 22 Este 0 -- -- 86
2019-06-14 16:00:00 15.5 12 Sudeste 20 Sudeste 0 -- -- 85
2019-06-14 15:00:00 15.1 8 Este 18 Sudeste 0 -- -- 85
2019-06-14 14:00:00 15.2 7 Este 17 Sudeste 0 -- -- 84
2019-06-14 13:00:00 15.1 8 Este 13 Este 0 -- -- 85
2019-06-14 12:00:00 14.9 6 Sudeste 12 Este 0 -- -- 85
2019-06-14 11:00:00 14.1 2 Sudoeste 6 Sudeste 0 -- -- 86
2019-06-14 10:00:00 13.1 3 Sur 6 Este 0 -- -- 94
2019-06-14 09:00:00 12.1 2 Sudeste 5 Este 0 -- -- 99
2019-06-14 08:00:00 11.5 2 Sudeste 4 Sudeste 0 -- -- 99
2019-06-14 07:00:00 11 0 Calma 6 Nordeste 0 -- -- 99
2019-06-14 06:00:00 11.2 4 Este 6 Este 0 -- -- 99
2019-06-14 05:00:00 11.3 3 Este 5 Este 0 -- -- 99
2019-06-14 04:00:00 11.3 3 Este 10 Este 0 -- -- 99
2019-06-14 03:00:00 11.7 5 Este 7 Este 0 -- -- 99
2019-06-14 02:00:00 11.9 3 Sudeste 5 Sudeste 0 -- -- 98
2019-06-14 01:00:00 12.2 0 Calma 4 Sudeste 0.2 -- -- 98
2019-06-14 00:00:00 12.2 0 Calma 6 Sudeste 0 -- -- 97
2019-06-13 23:00:00 12.6 2 Sur 5 Sudeste 0 -- -- 97
2019-06-13 22:00:00 12.7 0 Calma 9 Nordeste 1.6 -- -- 92
2019-06-13 21:00:00 13.2 5 Norte 14 Norte 1 -- -- 87
2019-06-13 20:00:00 13.9 5 Norte 17 Noroeste 0.2 -- -- 86
2019-06-13 19:00:00 14.7 8 Este 25 Este 0 -- -- 86
2019-06-13 18:00:00 16.2 10 Este 33 Este 0 -- -- 78
2019-06-13 17:00:00 17.8 14 Este 32 Nordeste 0 -- -- 73
2019-06-13 16:00:00 19.1 13 Este 35 Este 0 -- -- 72
2019-06-13 15:00:00 19.9 21 Este 35 Este 0 -- -- 66
2019-06-13 14:00:00 21.5 9 Este 23 Este 0 -- -- 61
2019-06-13 13:00:00 21.1 8 Este 18 Este 0 -- -- 62
2019-06-13 12:00:00 19 9 Este 15 Este 0 -- -- 61
2019-06-13 11:00:00 15.8 5 Sudeste 13 Sudeste 0 -- -- 77
2019-06-13 10:00:00 12.4 4 Sudeste 11 Sudeste 0 -- -- 86
2019-06-13 09:00:00 8.9 4 Sudeste 8 Este 0 -- -- 100
2019-06-13 08:00:00 7.3 3 Oeste 7 Noroeste 0 -- -- 99
2019-06-13 07:00:00 6.8 2 Oeste 4 Noroeste 0 -- -- 99
2019-06-13 06:00:00 6.7 0 Calma 4 Noroeste 0 -- -- 98
2019-06-13 05:00:00 7.2 0 Calma 5 Noroeste 0 -- -- 96
2019-06-13 04:00:00 7.9 2 Oeste 5 Oeste 0 -- -- 96
2019-06-13 03:00:00 8.5 3 Noroeste 5 Oeste 0 -- -- 94
2019-06-13 02:00:00 9.2 3 Oeste 6 Oeste 0 -- -- 92
2019-06-13 01:00:00 10.1 0 Calma 6 Sudeste 0 -- -- 89
2019-06-13 00:00:00 11.5 0 Calma 6 Nordeste 0 -- -- 82
2019-06-12 23:00:00 12.2 2 Nordeste 9 Este 0 -- -- 81
2019-06-12 22:00:00 12.7 3 Nordeste 10 Este 0 -- -- 79
2019-06-12 21:00:00 13.7 6 Sudeste 15 Este 0 -- -- 76
2019-06-12 20:00:00 14.4 6 Norte 17 Este 0 -- -- 70
2019-06-12 19:00:00 15.1 8 Nordeste 27 Este 0 -- -- 67
2019-06-12 18:00:00 16.4 11 Este 28 Este 0 -- -- 66
2019-06-12 17:00:00 17.4 12 Este 31 Este 0 -- -- 63
2019-06-12 16:00:00 18.3 8 Este 27 Este 0 -- -- 55
2019-06-12 15:00:00 19 6 Oeste 18 Sudeste 0 -- -- 49
2019-06-12 14:00:00 17.4 5 Norte 14 Noroeste 0 -- -- 51
2019-06-12 13:00:00 16.5 3 Sudoeste 26 Oeste 0 -- -- 51
2019-06-12 12:00:00 16.1 7 Oeste 25 Oeste 0 -- -- 54
2019-06-12 11:00:00 14.4 5 Oeste 14 Sudoeste 0 -- -- 62
2019-06-12 10:00:00 11.4 5 Sudeste 8 Sudeste 0 -- -- 100
2019-06-12 09:00:00 7.9 5 Noroeste 6 Sudoeste 0 -- -- 100
2019-06-12 08:00:00 7.1 5 Oeste 8 Sudoeste 0 -- -- 100
2019-06-12 07:00:00 6.7 5 Oeste 8 Noroeste 0 -- -- 100
2019-06-12 06:00:00 7 3 Sudoeste 7 Oeste 0 -- -- 100
2019-06-12 05:00:00 7.4 2 Sudoeste 6 Oeste 0 -- -- 99
2019-06-12 04:00:00 7.6 4 Oeste 6 Oeste 0 -- -- 99
2019-06-12 03:00:00 7.8 2 Noroeste 12 Noroeste 0 -- -- 98
2019-06-12 02:00:00 8.6 6 Noroeste 10 Oeste 0 -- -- 98
2019-06-12 01:00:00 9.3 2 Sudeste 6 Sur 0 -- -- 96
2019-06-12 00:00:00 9.8 0 Calma 9 Noroeste 0 -- -- 96
2019-06-11 23:00:00 10.3 4 Nordeste 24 Oeste 0 -- -- 94
2019-06-11 22:00:00 10.9 13 Oeste 23 Oeste 0.8 -- -- 90
2019-06-11 21:00:00 12.2 4 Noroeste 10 Noroeste 0 -- -- 83
2019-06-11 20:00:00 12.8 5 Este 12 Este 0 -- -- 83
2019-06-11 19:00:00 12.8 4 Sudeste 16 Noroeste 0.6 -- -- 85
2019-06-11 18:00:00 13.7 6 Oeste 15 Sudoeste 0 -- -- 78
2019-06-11 17:00:00 13.2 5 Sudeste 30 Noroeste 1.8 -- -- 82
2019-06-11 16:00:00 13.4 8 Norte 22 Oeste 2.2 -- -- 78
2019-06-11 15:00:00 13.8 7 Norte 38 Sudoeste 0.6 -- -- 76
2019-06-11 14:00:00 13.8 5 Sudoeste 21 Norte 0.2 -- -- 75
2019-06-11 13:00:00 12.6 6 Sudeste 26 Oeste 0.8 -- -- 82
2019-06-11 12:00:00 11.9 3 Sudoeste 27 Noroeste 0.4 -- -- 87
2019-06-11 11:00:00 11.6 5 Sudoeste 31 Noroeste 0.4 -- -- 87
2019-06-11 10:00:00 10.8 6 Oeste 13 Oeste 0 -- -- 93
2019-06-11 09:00:00 10.3 5 Sudoeste 9 Sudoeste 0 -- -- 97
2019-06-11 08:00:00 9.7 3 Sudeste 8 Este 0.2 -- -- 99
2019-06-11 07:00:00 9.5 3 Este 10 Oeste 0 -- -- 99
2019-06-11 06:00:00 9.6 7 Oeste 10 Oeste 0.2 -- -- 98
2019-06-11 05:00:00 9.5 3 Oeste 5 Oeste 0.2 -- -- 98
2019-06-11 04:00:00 9.6 0 Calma 6 Este 2 -- -- 97
2019-06-11 03:00:00 10.1 0 Calma 4 Noroeste 0.4 -- -- 96
2019-06-11 02:00:00 10.3 0 Calma 5 Noroeste 0.6 -- -- 93
2019-06-11 01:00:00 10.5 3 Noroeste 8 Oeste 0.2 -- -- 88
2019-06-11 00:00:00 11.3 0 Calma 3 Este 0 -- -- 87
2019-06-10 23:00:00 11.7 2 Noroeste 10 Noroeste 0 -- -- 81
2019-06-10 22:00:00 12 4 Este 7 Norte 0 -- -- 78
2019-06-10 21:00:00 12.4 4 Norte 9 Sudeste 0 -- -- 77
2019-06-10 20:00:00 13.1 4 Norte 10 Noroeste 0 -- -- 74
2019-06-10 19:00:00 13.9 5 Norte 12 Norte 0 -- -- 68
2019-06-10 18:00:00 14.8 3 Noroeste 12 Este 0 -- -- 66
2019-06-10 17:00:00 14.7 5 Nordeste 22 Nordeste 0 -- -- 66
2019-06-10 16:00:00 15.8 7 Norte 22 Noroeste 0 -- -- 66
2019-06-10 15:00:00 15.4 5 Sudeste 15 Este 0 -- -- 69
2019-06-10 14:00:00 15.4 5 Este 12 Este 0 -- -- 73
2019-06-10 13:00:00 14.8 4 Sur 14 Este 0 -- -- 73
2019-06-10 12:00:00 14.2 4 Sur 10 Sur 0 -- -- 75
2019-06-10 11:00:00 12.5 2 Nordeste 13 Noroeste 0 -- -- 83
2019-06-10 10:00:00 11.6 4 Noroeste 8 Noroeste 0 -- -- 93
2019-06-10 09:00:00 11.3 4 Sudeste 8 Sudeste 0.2 -- -- 97
2019-06-10 08:00:00 10.6 2 Sudeste 4 Este 0.4 -- -- 96
2019-06-10 07:00:00 10.7 0 Calma 5 Norte 0 -- -- 95
2019-06-10 06:00:00 10.9 3 Norte 18 Oeste 0 -- -- 91
2019-06-10 05:00:00 11.2 5 Noroeste 9 Norte 0 -- -- 91
2019-06-10 04:00:00 11.3 3 Nordeste 8 Norte 0 -- -- 92
2019-06-10 03:00:00 11.4 6 Norte 13 Norte 0.2 -- -- 92
2019-06-10 02:00:00 12 4 Este 13 Norte 0.4 -- -- 93
2019-06-10 01:00:00 12.3 3 Nordeste 10 Noroeste 0 -- -- 92
2019-06-10 00:00:00 12.7 5 Norte 15 Noroeste 0.4 -- -- 89
2019-06-09 23:00:00 12.8 4 Nordeste 10 Este 0.2 -- -- 93
2019-06-09 22:00:00 13.2 4 Este 18 Noroeste 0 -- -- 93
2019-06-09 21:00:00 13.9 3 Noroeste 21 Noroeste 0 -- -- 90
2019-06-09 20:00:00 14.5 4 Noroeste 12 Noroeste 0 -- -- 87
2019-06-09 19:00:00 14.6 6 Este 22 Este 0 -- -- 88
2019-06-09 18:00:00 15.2 8 Este 19 Este 0 -- -- 84
2019-06-09 17:00:00 16.5 5 Nordeste 18 Norte 0 -- -- 80
2019-06-09 16:00:00 17 10 Norte 22 Noroeste 0 -- -- 75
2019-06-09 15:00:00 19.6 5 Noroeste 21 Este 0 -- -- 70
2019-06-09 14:00:00 20.9 12 Este 18 Este 0 -- -- 64
2019-06-09 13:00:00 20.5 10 Sudeste 19 Sudeste 0 -- -- 70
2019-06-09 12:00:00 19.2 8 Sudeste 19 Sur 0 -- -- 69
2019-06-09 11:00:00 17.3 8 Este 15 Sudeste 0 -- -- 72
2019-06-09 10:00:00 16.8 4 Sur 10 Sudeste 0 -- -- 77
2019-06-09 09:00:00 13.5 3 Sudeste 6 Sudeste 0 -- -- 91
2019-06-09 08:00:00 12.5 3 Este 5 Este 0 -- -- 95
2019-06-09 07:00:00 12.5 0 Calma 5 Este 0 -- -- 95
2019-06-09 06:00:00 12.7 3 Este 5 Este 0 -- -- 94
2019-06-09 05:00:00 12.7 2 Nordeste 9 Este 0 -- -- 95
2019-06-09 04:00:00 13.1 2 Oeste 5 Este 0 -- -- 95
2019-06-09 03:00:00 13.2 4 Este 6 Este 0 -- -- 94
2019-06-09 02:00:00 13.3 0 Calma 4 Este 0 -- -- 93
2019-06-09 01:00:00 13.5 2 Nordeste 5 Sudoeste 0 -- -- 93
2019-06-09 00:00:00 13.6 3 Oeste 13 Este 0.2 -- -- 90
2019-06-08 23:00:00 14.4 3 Sudoeste 10 Este 0 -- -- 84
2019-06-08 22:00:00 14.7 3 Nordeste 12 Sudeste 0 -- -- 81
2019-06-08 21:00:00 15.2 6 Este 16 Este 0 -- -- 79
2019-06-08 20:00:00 16.3 6 Nordeste 22 Este 0 -- -- 74
2019-06-08 19:00:00 17.8 9 Este 29 Este 0 -- -- 70
2019-06-08 18:00:00 17.7 15 Este 33 Este 0 -- -- 70
2019-06-08 17:00:00 18.3 8 Este 28 Este 0 -- -- 66
2019-06-08 16:00:00 19.9 13 Sudeste 29 Este 0 -- -- 61
2019-06-08 15:00:00 19.4 16 Sudeste 28 Este 0 -- -- 62
2019-06-08 14:00:00 19.2 14 Este 24 Este 0 -- -- 58
2019-06-08 13:00:00 18.1 13 Este 21 Este 0 -- -- 60
2019-06-08 12:00:00 17 12 Este 24 Este 0 -- -- 59
2019-06-08 11:00:00 16 12 Este 18 Este 0 -- -- 63
2019-06-08 10:00:00 13.6 4 Sudeste 8 Sudeste 0 -- -- 80
2019-06-08 09:00:00 10.4 3 Sudeste 6 Sur 0 -- -- 92
2019-06-08 08:00:00 7.6 3 Sudeste 5 Sudeste 0 -- -- 99
2019-06-08 07:00:00 6.5 3 Sudeste 5 Sudeste 0 -- -- 98
2019-06-08 06:00:00 6.6 0 Calma 4 Oeste 0 -- -- 97
2019-06-08 05:00:00 7.1 3 Oeste 3 Oeste 0 -- -- 96
2019-06-08 04:00:00 7.7 0 Calma 5 Este 0 -- -- 95
2019-06-08 03:00:00 8.3 2 Sudeste 4 Sudeste 0 -- -- 94
2019-06-08 02:00:00 9 2 Sudoeste 5 Sudeste 0 -- -- 92
2019-06-08 01:00:00 10.2 0 Calma 7 Oeste 0 -- -- 87
2019-06-08 00:00:00 11.4 0 Calma 6 Nordeste 0 -- -- 82
2019-06-07 23:00:00 12.2 3 Nordeste 9 Nordeste 0 -- -- 79
2019-06-07 22:00:00 13 4 Este 10 Nordeste 0 -- -- 76
2019-06-07 21:00:00 13.5 4 Nordeste 12 Nordeste 0 -- -- 72
2019-06-07 20:00:00 14.3 5 Este 18 Este 0 -- -- 71
2019-06-07 19:00:00 14.8 11 Sudeste 22 Sudeste 0 -- -- 68
2019-06-07 18:00:00 15.1 4 Norte 18 Norte 0 -- -- 70
2019-06-07 17:00:00 16.6 9 Este 25 Este 0 -- -- 62
2019-06-07 16:00:00 16.4 7 Nordeste 34 Este 0 -- -- 60
2019-06-07 15:00:00 17 9 Nordeste 37 Este 0 -- -- 56
2019-06-07 14:00:00 19.7 14 Oeste 23 Noroeste 0 -- -- 41
2019-06-07 13:00:00 19.2 8 Sudoeste 28 Oeste 0 -- -- 47
2019-06-07 12:00:00 17.4 13 Oeste 25 Sudoeste 0 -- -- 46
2019-06-07 11:00:00 16.3 10 Oeste 49 Oeste 0 -- -- 51
2019-06-07 10:00:00 14.8 24 Sudoeste 49 Oeste 0 -- -- 56
2019-06-07 09:00:00 14.1 20 Oeste 40 Oeste 0 -- -- 58
2019-06-07 08:00:00 13.7 6 Sudoeste 46 Sudoeste 0 -- -- 58
2019-06-07 07:00:00 12.4 10 Sur 35 Sudoeste 0 -- -- 65
2019-06-07 06:00:00 12.1 8 Sudeste 22 Sudeste 0 -- -- 69
2019-06-07 05:00:00 11.4 7 Este 21 Oeste 0.2 -- -- 77
2019-06-07 04:00:00 12.1 19 Oeste 48 Oeste 0.4 -- -- 75
2019-06-07 03:00:00 14.5 34 Oeste 63 Oeste 0.2 -- -- 62
2019-06-07 02:00:00 16.7 26 Oeste 37 Oeste 0 -- -- 73
2019-06-07 01:00:00 19.8 16 Sudoeste 41 Sur 0 -- -- 53
2019-06-07 00:00:00 20.8 21 Oeste 48 Sudeste 0 -- -- 49
2019-06-06 23:00:00 21.5 28 Sudeste 67 Sudeste 0 -- -- 47
2019-06-06 22:00:00 22.9 26 Sudeste 63 Sudeste 0 -- -- 38
2019-06-06 21:00:00 24 22 Sudeste 55 Sudeste 0 -- -- 31
2019-06-06 20:00:00 24.1 26 Sudeste 55 Sudeste 0 -- -- 31
2019-06-06 19:00:00 23.6 27 Sudeste 58 Sudeste 0 -- -- 37
2019-06-06 18:00:00 23.6 29 Sudeste 59 Sudeste 0 -- -- 38
2019-06-06 17:00:00 23.4 26 Sudeste 54 Sudeste 0 -- -- 41
2019-06-06 16:00:00 23 14 Sur 42 Sudeste 0 -- -- 45
2019-06-06 15:00:00 21.6 17 Este 42 Este 0 -- -- 47
2019-06-06 14:00:00 20.5 23 Sudeste 39 Sudeste 0 -- -- 53
2019-06-06 13:00:00 20.3 15 Sur 26 Sudeste 0 -- -- 48
2019-06-06 12:00:00 17.1 9 Este 15 Este 0 -- -- 67
2019-06-06 11:00:00 15.3 10 Sudeste 19 Sudeste 0 -- -- 75
2019-06-06 10:00:00 12.4 8 Este 14 Este 0 -- -- 82
2019-06-06 09:00:00 9.8 4 Sudeste 6 Este 0 -- -- 99
2019-06-06 08:00:00 8.6 0 Calma 5 Sudeste 0 -- -- 99
2019-06-06 07:00:00 8.3 0 Calma 4 Nordeste 0 -- -- 99
2019-06-06 06:00:00 8.4 3 Noroeste 4 Oeste 0 -- -- 98
2019-06-06 05:00:00 8.5 0 Calma 3 Noroeste 0 -- -- 97
2019-06-06 04:00:00 8.8 0 Calma 5 Sudeste 0 -- -- 96
2019-06-06 03:00:00 9.1 4 Noroeste 7 Noroeste 0 -- -- 95
2019-06-06 02:00:00 9.5 0 Calma 7 Este 0 -- -- 95
2019-06-06 01:00:00 9.6 3 Sudeste 9 Oeste 0 -- -- 92
2019-06-06 00:00:00 10.3 2 Norte 7 Norte 0 -- -- 91
2019-06-05 23:00:00 11.3 3 Norte 11 Norte 0 -- -- 75
2019-06-05 22:00:00 12.1 7 Norte 14 Noroeste 0 -- -- 72
2019-06-05 21:00:00 13.2 3 Nordeste 12 Noroeste 0 -- -- 79
2019-06-05 20:00:00 13.7 6 Norte 17 Oeste 0 -- -- 71
2019-06-05 19:00:00 14.4 6 Noroeste 13 Noroeste 0 -- -- 72
2019-06-05 18:00:00 15 7 Oeste 20 Oeste 0 -- -- 75
2019-06-05 17:00:00 13.6 4 Sudeste 12 Este 0 -- -- 86
2019-06-05 16:00:00 12.8 7 Este 18 Este 0.4 -- -- 91
2019-06-05 15:00:00 12.7 11 Sudeste 17 Sudeste 1 -- -- 96
2019-06-05 14:00:00 12 6 Oeste 22 Oeste 1.4 -- -- 94
2019-06-05 13:00:00 12.2 17 Oeste 26 Oeste 0.2 -- -- 94
2019-06-05 12:00:00 11.6 11 Oeste 22 Oeste 0.6 -- -- 97
2019-06-05 11:00:00 11 2 Sudeste 6 Sudeste 0.8 -- -- 99
2019-06-05 10:00:00 10.6 3 Oeste 11 Este 5 -- -- 99
2019-06-05 09:00:00 10.5 4 Oeste 15 Noroeste 5 -- -- 97
2019-06-05 08:00:00 10.8 4 Este 21 Noroeste 2.2 -- -- 98
2019-06-05 07:00:00 11.1 3 Este 9 Sudeste 3 -- -- 98
2019-06-05 06:00:00 11.6 4 Este 9 Este 6.2 -- -- 97
2019-06-05 05:00:00 12.1 5 Sudeste 9 Este 0 -- -- 96
2019-06-05 04:00:00 12.3 7 Sudeste 10 Este 0 -- -- 96
2019-06-05 03:00:00 12.3 4 Oeste 9 Este 0 -- -- 96
2019-06-05 02:00:00 12.4 2 Norte 5 Noroeste 0 -- -- 96
2019-06-05 01:00:00 12.5 0 Calma 5 Oeste 0 -- -- 95
2019-06-05 00:00:00 12.6 3 Nordeste 8 Este 0 -- -- 93
2019-06-04 23:00:00 12.9 0 Calma 5 Noroeste 0 -- -- 91
2019-06-04 22:00:00 12.9 2 Norte 5 Noroeste 0 -- -- 89
2019-06-04 21:00:00 13.1 3 Nordeste 18 Este 0.2 -- -- 87
2019-06-04 20:00:00 13.9 8 Este 23 Noroeste 0.2 -- -- 86
2019-06-04 19:00:00 16.2 4 Norte 18 Este 0.4 -- -- 87
2019-06-04 18:00:00 17.4 6 Nordeste 19 Nordeste 0 -- -- 78
2019-06-04 17:00:00 18.1 13 Noroeste 31 Norte 0 -- -- 78
2019-06-04 16:00:00 20.7 7 Nordeste 39 Este 0 -- -- 72
2019-06-04 15:00:00 21.8 25 Este 41 Nordeste 0 -- -- 72
2019-06-04 14:00:00 28.2 8 Sur 28 Este 0 -- -- 43
2019-06-04 13:00:00 26.7 12 Oeste 25 Sudoeste 0 -- -- 43
2019-06-04 12:00:00 26.7 7 Sur 33 Oeste 0 -- -- 42
2019-06-04 11:00:00 23.3 15 Oeste 31 Oeste 0 -- -- 48
2019-06-04 10:00:00 21.8 15 Oeste 29 Oeste 0 -- -- 47
2019-06-04 09:00:00 20.9 9 Sudoeste 23 Sur 0 -- -- 45
2019-06-04 08:00:00 20.9 8 Sudoeste 20 Sudoeste 0 -- -- 47
2019-06-04 07:00:00 20.5 10 Oeste 25 Sudoeste 0 -- -- 49
2019-06-04 06:00:00 18.3 14 Oeste 22 Oeste 0 -- -- 63
2019-06-04 05:00:00 14.9 2 Oeste 9 Noroeste 0 -- -- 94
2019-06-04 04:00:00 15.8 5 Noroeste 9 Noroeste 0 -- -- 93
2019-06-04 03:00:00 16.5 0 Calma 6 Este 0 -- -- 92
2019-06-04 02:00:00 16.7 3 Este 6 Este 0 -- -- 91
2019-06-04 01:00:00 16.6 2 Oeste 5 Noroeste 0 -- -- 92
2019-06-04 00:00:00 16.4 3 Noroeste 6 Nordeste 0 -- -- 92
2019-06-03 23:00:00 16.7 5 Este 19 Este 0 -- -- 90
2019-06-03 22:00:00 17.3 11 Este 24 Este 0 -- -- 87
2019-06-03 21:00:00 19 12 Este 23 Este 0 -- -- 81
2019-06-03 20:00:00 20.9 13 Este 24 Este 0 -- -- 76
2019-06-03 19:00:00 22.1 13 Este 27 Este 0 -- -- 72
2019-06-03 18:00:00 22.8 13 Este 27 Este 0 -- -- 70
2019-06-03 17:00:00 23.3 15 Este 27 Este 0 -- -- 70
2019-06-03 16:00:00 22.8 15 Este 27 Este 0 -- -- 71
2019-06-03 15:00:00 22.6 18 Este 29 Este 0 -- -- 68
2019-06-03 14:00:00 24.5 13 Sudeste 23 Sudeste 0 -- -- 61
2019-06-03 13:00:00 22.5 10 Este 21 Sudeste 0 -- -- 58
2019-06-03 12:00:00 21.1 10 Este 17 Sudeste 0 -- -- 58
2019-06-03 11:00:00 19.5 8 Este 13 Sudeste 0 -- -- 65
2019-06-03 10:00:00 16.9 4 Sudoeste 10 Sudeste 0 -- -- 74
2019-06-03 09:00:00 14.6 2 Sudeste 8 Noroeste 0 -- -- 88
2019-06-03 08:00:00 13 3 Oeste 5 Oeste 0 -- -- 89
2019-06-03 07:00:00 12.8 0 Calma 5 Noroeste 0 -- -- 89
2019-06-03 06:00:00 13.1 2 Noroeste 6 Noroeste 0 -- -- 86
2019-06-03 05:00:00 13.4 3 Este 5 Oeste 0 -- -- 87
2019-06-03 04:00:00 14.2 3 Este 9 Noroeste 0 -- -- 83
2019-06-03 03:00:00 15 3 Este 8 Noroeste 0 -- -- 78
2019-06-03 02:00:00 15.6 3 Oeste 8 Noroeste 0 -- -- 73
2019-06-03 01:00:00 16.1 0 Calma 6 Oeste 0 -- -- 74
2019-06-03 00:00:00 16.9 3 Sudeste 9 Este 0 -- -- 71
2019-06-02 23:00:00 17.8 3 Este 9 Este 0 -- -- 68
2019-06-02 22:00:00 19.2 7 Nordeste 17 Este 0 -- -- 62
2019-06-02 21:00:00 20.6 3 Noroeste 16 Este 0 -- -- 65
2019-06-02 20:00:00 22.1 11 Este 17 Este 0 -- -- 57
2019-06-02 19:00:00 25.1 4 Norte 18 Este 0 -- -- 54
2019-06-02 18:00:00 24.3 13 Este 32 Este 0 -- -- 55
2019-06-02 17:00:00 26.4 19 Este 34 Este 0 -- -- 55
2019-06-02 16:00:00 30.8 5 Nordeste 17 Nordeste 0 -- -- 46
2019-06-02 15:00:00 30.8 2 Oeste 21 Sudeste 0 -- -- 44
2019-06-02 14:00:00 30.5 9 Sudeste 22 Sudeste 0 -- -- 43
2019-06-02 13:00:00 29.1 10 Sudeste 20 Sudeste 0 -- -- 41
2019-06-02 12:00:00 27.2 4 Oeste 10 Sudeste 0 -- -- 47
2019-06-02 11:00:00 23.5 3 Este 8 Sudeste 0 -- -- 67
2019-06-02 10:00:00 21 4 Sudeste 8 Este 0 -- -- 70
2019-06-02 09:00:00 18 4 Sudeste 8 Sudeste 0 -- -- 78
2019-06-02 08:00:00 14.9 2 Sudeste 5 Este 0 -- -- 90
2019-06-02 07:00:00 13.5 3 Nordeste 6 Sudoeste 0 -- -- 91
2019-06-02 06:00:00 13.6 3 Noroeste 6 Oeste 0 -- -- 95
2019-06-02 05:00:00 14.1 3 Norte 12 Sudeste 0 -- -- 92
2019-06-02 04:00:00 15 3 Oeste 5 Sudeste 0 -- -- 90
2019-06-02 03:00:00 15.9 3 Sudoeste 7 Noroeste 0 -- -- 86
2019-06-02 02:00:00 17.2 0 Calma 4 Sudeste 0 -- -- 82
2019-06-02 01:00:00 18.8 0 Calma 4 Este 0 -- -- 75
2019-06-02 00:00:00 20.4 0 Calma 8 Sudoeste 0 -- -- 66
2019-06-01 23:00:00 22.3 2 Sur 14 Noroeste 0 -- -- 60
2019-06-01 22:00:00 24.6 5 Oeste 8 Sudoeste 0 -- -- 51
2019-06-01 21:00:00 28 3 Sudeste 9 Nordeste 0 -- -- 43
2019-06-01 20:00:00 31.4 3 Nordeste 11 Norte 0 -- -- 34
2019-06-01 19:00:00 31.6 5 Este 12 Este 0 -- -- 33
2019-06-01 18:00:00 31.4 8 Este 17 Este 0 -- -- 33
2019-06-01 17:00:00 31.9 4 Sur 15 Sudeste 0 -- -- 36
2019-06-01 16:00:00 31.5 8 Sudeste 17 Sudeste 0 -- -- 40
2019-06-01 15:00:00 30.6 8 Sudeste 21 Sudeste 0 -- -- 39
2019-06-01 14:00:00 29.6 11 Sur 22 Sudeste 0 -- -- 43
2019-06-01 13:00:00 28.7 7 Sur 19 Sur 0 -- -- 46
2019-06-01 12:00:00 27.4 7 Sur 20 Sur 0 -- -- 51
2019-06-01 11:00:00 24.6 5 Oeste 14 Oeste 0 -- -- 56
2019-06-01 10:00:00 21.2 3 Noroeste 10 Noroeste 0 -- -- 65
2019-06-01 09:00:00 15.5 4 Noroeste 10 Oeste 0 -- -- 100
2019-06-01 08:00:00 13.3 3 Este 8 Este 0 -- -- 100
2019-06-01 07:00:00 12.8 3 Noroeste 6 Noroeste 0 -- -- 100
2019-06-01 06:00:00 13.1 2 Oeste 6 Noroeste 0 -- -- 99
2019-06-01 05:00:00 13.9 2 Oeste 4 Oeste 0 -- -- 98
2019-06-01 04:00:00 14.3 3 Oeste 4 Oeste 0 -- -- 98
2019-06-01 03:00:00 15.1 2 Sudoeste 4 Noroeste 0 -- -- 96
2019-06-01 02:00:00 15.8 3 Noroeste 6 Noroeste 0 -- -- 95
2019-06-01 01:00:00 16.8 2 Oeste 5 Noroeste 0 -- -- 91
2019-06-01 00:00:00 17.9 3 Oeste 4 Oeste 0 -- -- 87
2019-05-31 23:00:00 19.7 3 Este 5 Este 0 -- -- 77
2019-05-31 22:00:00 21.5 2 Este 8 Este 0 -- -- 71
2019-05-31 21:00:00 23.7 3 Nordeste 12 Este 0 -- -- 65
2019-05-31 20:00:00 26.1 5 Nordeste 16 Nordeste 0 -- -- 57
2019-05-31 19:00:00 26.5 6 Este 25 Nordeste 0 -- -- 55
2019-05-31 18:00:00 26.8 8 Nordeste 20 Este 0 -- -- 56
2019-05-31 17:00:00 27.4 8 Nordeste 21 Este 0 -- -- 53
2019-05-31 16:00:00 28 8 Este 20 Este 0 -- -- 49
2019-05-31 15:00:00 28.1 10 Sudeste 17 Este 0 -- -- 47
2019-05-31 14:00:00 27.1 9 Este 20 Sudeste 0 -- -- 48
2019-05-31 13:00:00 25.7 10 Sudeste 15 Sudeste 0 -- -- 57
2019-05-31 12:00:00 23.2 5 Sudeste 12 Sudeste 0 -- -- 69
2019-05-31 11:00:00 19.6 4 Sudeste 10 Sudeste 0 -- -- 79
2019-05-31 10:00:00 14.9 4 Sudeste 8 Este 0 -- -- 100
2019-05-31 09:00:00 12.2 2 Sudeste 5 Noroeste 0 -- -- 100
2019-05-31 08:00:00 11.4 0 Calma 5 Oeste 0 -- -- 100
2019-05-31 07:00:00 11.3 0 Calma 5 Oeste 0 -- -- 100
2019-05-31 06:00:00 11.4 0 Calma 5 Noroeste 0 -- -- 99
2019-05-31 05:00:00 11.6 0 Calma 3 Sudeste 0 -- -- 99
2019-05-31 04:00:00 12.1 0 Calma 5 Oeste 0 -- -- 98
2019-05-31 03:00:00 12.7 0 Calma 4 Noroeste 0 -- -- 97
2019-05-31 02:00:00 13.2 3 Oeste -- -- 0 -- -- 95
2019-05-31 01:00:00 14.2 4 Noroeste 6 Oeste 0 -- -- 93
2019-05-31 00:00:00 14.8 2 Noroeste 5 Este 0 -- -- 90
2019-05-30 23:00:00 16.4 0 Calma 10 Este 0 -- -- 83
2019-05-30 22:00:00 17.6 9 Este 13 Este 0 -- -- 79
2019-05-30 21:00:00 19.6 7 Norte 14 Este 0 -- -- 71
2019-05-30 20:00:00 21.5 4 Nordeste 22 Este 0 -- -- 65
2019-05-30 19:00:00 21.9 10 Este 22 Este 0 -- -- 65
2019-05-30 18:00:00 23 10 Este 30 Este 0 -- -- 61
2019-05-30 17:00:00 23 15 Este 28 Este 0 -- -- 60
2019-05-30 16:00:00 23.3 15 Este 27 Este 0 -- -- 58
2019-05-30 15:00:00 24.1 7 Sudeste 19 Este 0 -- -- 54
2019-05-30 14:00:00 22.7 13 Este 22 Este 0 -- -- 54
2019-05-30 13:00:00 21.9 7 Sudeste 13 Sudeste 0 -- -- 52
2019-05-30 12:00:00 19.3 3 Sur 10 Sudeste 0 -- -- 61
2019-05-30 11:00:00 16 3 Sudeste 9 Sudeste 0 -- -- 74
2019-05-30 10:00:00 11.6 3 Sudeste 7 Sur 0 -- -- 100
2019-05-30 09:00:00 8.2 2 Noroeste 4 Oeste 0 -- -- 100
2019-05-30 08:00:00 7.3 0 Calma 4 Noroeste 0 -- -- 100
2019-05-30 07:00:00 7.2 2 Noroeste 5 Oeste 0 -- -- 100
2019-05-30 06:00:00 7.1 0 Calma 4 Oeste 0 -- -- 99
2019-05-30 05:00:00 7.2 2 Sudoeste 5 Oeste 0 -- -- 99
2019-05-30 04:00:00 7.7 2 Noroeste 3 Este 0 -- -- 98
2019-05-30 03:00:00 8.2 0 Calma 3 Oeste 0 -- -- 96
2019-05-30 02:00:00 8.9 3 Noroeste 6 Oeste 0 -- -- 95
2019-05-30 01:00:00 9.6 3 Oeste 4 Oeste 0 -- -- 93
2019-05-30 00:00:00 10.6 3 Oeste 6 Sudoeste 0 -- -- 88
2019-05-29 23:00:00 11.8 2 Sudeste 14 Norte 0 -- -- 85
2019-05-29 22:00:00 13.1 7 Nordeste 14 Norte 0 -- -- 79
2019-05-29 21:00:00 14.4 5 Nordeste 12 Nordeste 0 -- -- 71
2019-05-29 20:00:00 16.6 5 Nordeste 16 Este 0 -- -- 64
2019-05-29 19:00:00 17.3 6 Norte 18 Este 0 -- -- 62
2019-05-29 18:00:00 18 6 Norte 21 Oeste 0 -- -- 62
2019-05-29 17:00:00 17.3 6 Norte 20 Noroeste 0 -- -- 60
2019-05-29 16:00:00 17 6 Norte 23 Sur 0 -- -- 65
2019-05-29 15:00:00 17.8 6 Oeste 19 Noroeste 0 -- -- 63
2019-05-29 14:00:00 16.1 6 Norte 28 Noroeste 0 -- -- 62
2019-05-29 13:00:00 15.6 8 Noroeste 22 Noroeste 0 -- -- 68
2019-05-29 12:00:00 15.9 6 Nordeste 19 Oeste 0 -- -- 65
2019-05-29 11:00:00 14.6 7 Oeste 22 Noroeste 0 -- -- 76
2019-05-29 10:00:00 13 5 Este 22 Noroeste 0 -- -- 84
2019-05-29 09:00:00 11.7 4 Norte 17 Noroeste 0 -- -- 89
2019-05-29 08:00:00 10.5 0 Calma 6 Noroeste 0 -- -- 99
2019-05-29 07:00:00 10.3 2 Nordeste 6 Sudeste 1 -- -- 98
2019-05-29 06:00:00 10.5 3 Este 5 Noroeste 0.8 -- -- 95
2019-05-29 05:00:00 11 6 Noroeste 18 Noroeste 0.2 -- -- 88
2019-05-29 04:00:00 11.1 9 Noroeste 22 Noroeste 0 -- -- 90
2019-05-29 03:00:00 11.6 5 Norte 21 Norte 0 -- -- 85
2019-05-29 02:00:00 11.6 10 Noroeste 31 Noroeste 0 -- -- 83
2019-05-29 01:00:00 11.7 11 Noroeste 24 Noroeste 0 -- -- 83
2019-05-29 00:00:00 11.7 12 Noroeste 23 Noroeste 0 -- -- 83
2019-05-28 23:00:00 11.8 10 Noroeste 24 Noroeste 0 -- -- 83
2019-05-28 22:00:00 12 8 Norte 24 Noroeste 0 -- -- 80
2019-05-28 21:00:00 12.2 6 Norte 18 Noroeste 0 -- -- 83
2019-05-28 20:00:00 11.9 3 Noroeste 23 Norte 0.4 -- -- 87
2019-05-28 19:00:00 14.8 5 Oeste 17 Noroeste 0 -- -- 72
2019-05-28 18:00:00 14.9 5 Nordeste 21 Noroeste 0 -- -- 70
2019-05-28 17:00:00 14.5 7 Nordeste 23 Norte 0 -- -- 73
2019-05-28 16:00:00 12.7 8 Norte 22 Norte 2 -- -- 89
2019-05-28 15:00:00 13.6 6 Noroeste 25 Norte 0.2 -- -- 84
2019-05-28 14:00:00 13 10 Noroeste 25 Noroeste 1.6 -- -- 87
2019-05-28 13:00:00 15 7 Sudeste 16 Noroeste 0 -- -- 76
2019-05-28 12:00:00 15.2 8 Sudeste 17 Este 0 -- -- 84
2019-05-28 11:00:00 11.7 3 Sudeste 6 Sudeste 0.2 -- -- 98
2019-05-28 10:00:00 10.8 3 Oeste 9 Noroeste 0 -- -- 98
2019-05-28 09:00:00 9.7 2 Este 8 Este 0 -- -- 99
2019-05-28 08:00:00 9.2 3 Sudoeste 7 Noroeste 0 -- -- 99
2019-05-28 07:00:00 8.7 4 Noroeste 6 Noroeste 0 -- -- 99
2019-05-28 06:00:00 8.9 3 Nordeste 9 Oeste 0 -- -- 98
2019-05-28 05:00:00 9.2 3 Noroeste 7 Oeste 0 -- -- 96
2019-05-28 04:00:00 9.8 2 Nordeste 7 Sudeste 0 -- -- 96
2019-05-28 03:00:00 10.3 3 Nordeste 5 Noroeste 0 -- -- 93
2019-05-28 02:00:00 11 2 Sur 15 Norte 0 -- -- 91
2019-05-28 01:00:00 11.6 2 Sur 8 Sudeste 0 -- -- 89
2019-05-28 00:00:00 12 4 Noroeste 14 Noroeste 0 -- -- 88